sensor_id;sensor_type;location;lat;lon;timestamp;P1;durP1;ratioP1;P2;durP2;ratioP2
5171;SDS011;2605;49.770;9.868;2022-08-21T00:00:09;22.70;;;20.70;;
5171;SDS011;2605;49.770;9.868;2022-08-21T00:02:43;22.73;;;20.57;;
5171;SDS011;2605;49.770;9.868;2022-08-21T00:05:14;23.10;;;20.80;;
5171;SDS011;2605;49.770;9.868;2022-08-21T00:07:40;26.30;;;23.83;;
5171;SDS011;2605;49.770;9.868;2022-08-21T00:10:06;25.30;;;22.90;;
5171;SDS011;2605;49.770;9.868;2022-08-21T00:12:32;23.30;;;20.97;;
5171;SDS011;2605;49.770;9.868;2022-08-21T00:14:58;29.37;;;23.70;;
5171;SDS011;2605;49.770;9.868;2022-08-21T00:17:23;23.87;;;21.37;;
5171;SDS011;2605;49.770;9.868;2022-08-21T00:19:49;24.70;;;22.30;;
5171;SDS011;2605;49.770;9.868;2022-08-21T00:22:14;24.17;;;21.83;;
5171;SDS011;2605;49.770;9.868;2022-08-21T00:24:40;22.80;;;20.57;;
5171;SDS011;2605;49.770;9.868;2022-08-21T00:27:05;23.30;;;21.20;;
5171;SDS011;2605;49.770;9.868;2022-08-21T00:29:31;23.70;;;21.43;;
5171;SDS011;2605;49.770;9.868;2022-08-21T00:31:56;22.80;;;20.70;;
5171;SDS011;2605;49.770;9.868;2022-08-21T00:34:22;23.00;;;19.50;;
5171;SDS011;2605;49.770;9.868;2022-08-21T00:36:47;25.53;;;20.10;;
5171;SDS011;2605;49.770;9.868;2022-08-21T00:39:13;19.63;;;17.80;;
5171;SDS011;2605;49.770;9.868;2022-08-21T00:41:39;18.37;;;16.97;;
5171;SDS011;2605;49.770;9.868;2022-08-21T00:44:06;17.27;;;15.80;;
5171;SDS011;2605;49.770;9.868;2022-08-21T00:46:33;17.33;;;16.03;;
5171;SDS011;2605;49.770;9.868;2022-08-21T00:48:59;17.17;;;15.77;;
5171;SDS011;2605;49.770;9.868;2022-08-21T00:54:04;15.67;;;14.57;;
5171;SDS011;2605;49.770;9.868;2022-08-21T00:56:31;15.80;;;14.50;;
5171;SDS011;2605;49.770;9.868;2022-08-21T00:58:57;14.93;;;13.60;;
5171;SDS011;2605;49.770;9.868;2022-08-21T01:01:23;13.30;;;12.30;;
5171;SDS011;2605;49.770;9.868;2022-08-21T01:03:49;13.87;;;12.77;;
5171;SDS011;2605;49.770;9.868;2022-08-21T01:06:15;14.00;;;12.80;;
5171;SDS011;2605;49.770;9.868;2022-08-21T01:08:41;13.13;;;12.17;;
5171;SDS011;2605;49.770;9.868;2022-08-21T01:11:07;12.27;;;11.47;;
5171;SDS011;2605;49.770;9.868;2022-08-21T01:13:34;14.00;;;12.70;;
5171;SDS011;2605;49.770;9.868;2022-08-21T01:16:02;13.70;;;11.93;;
5171;SDS011;2605;49.770;9.868;2022-08-21T01:18:29;13.77;;;12.43;;
5171;SDS011;2605;49.770;9.868;2022-08-21T01:23:39;12.37;;;11.37;;
5171;SDS011;2605;49.770;9.868;2022-08-21T01:26:08;12.33;;;11.40;;
5171;SDS011;2605;49.770;9.868;2022-08-21T01:28:38;12.43;;;11.53;;
5171;SDS011;2605;49.770;9.868;2022-08-21T01:31:08;17.13;;;13.07;;
5171;SDS011;2605;49.770;9.868;2022-08-21T01:33:38;12.23;;;11.10;;
5171;SDS011;2605;49.770;9.868;2022-08-21T01:36:04;13.17;;;12.17;;
5171;SDS011;2605;49.770;9.868;2022-08-21T01:38:30;13.93;;;12.80;;
5171;SDS011;2605;49.770;9.868;2022-08-21T01:40:56;13.50;;;12.40;;
5171;SDS011;2605;49.770;9.868;2022-08-21T01:43:21;14.23;;;12.93;;
5171;SDS011;2605;49.770;9.868;2022-08-21T01:45:47;11.97;;;10.97;;
5171;SDS011;2605;49.770;9.868;2022-08-21T01:48:12;12.10;;;11.20;;
5171;SDS011;2605;49.770;9.868;2022-08-21T01:50:38;13.80;;;12.63;;
5171;SDS011;2605;49.770;9.868;2022-08-21T01:53:04;20.10;;;14.37;;
5171;SDS011;2605;49.770;9.868;2022-08-21T01:55:29;12.73;;;11.70;;
5171;SDS011;2605;49.770;9.868;2022-08-21T01:57:56;13.13;;;12.03;;
5171;SDS011;2605;49.770;9.868;2022-08-21T02:00:22;12.60;;;11.70;;
5171;SDS011;2605;49.770;9.868;2022-08-21T02:02:48;12.47;;;11.43;;
5171;SDS011;2605;49.770;9.868;2022-08-21T02:05:14;14.93;;;13.63;;
5171;SDS011;2605;49.770;9.868;2022-08-21T02:07:41;14.73;;;13.37;;
5171;SDS011;2605;49.770;9.868;2022-08-21T02:10:14;15.60;;;13.13;;
5171;SDS011;2605;49.770;9.868;2022-08-21T02:12:41;16.10;;;14.43;;
5171;SDS011;2605;49.770;9.868;2022-08-21T02:15:07;13.13;;;12.00;;
5171;SDS011;2605;49.770;9.868;2022-08-21T02:17:38;14.50;;;13.20;;
5171;SDS011;2605;49.770;9.868;2022-08-21T02:20:06;14.13;;;12.73;;
5171;SDS011;2605;49.770;9.868;2022-08-21T02:22:32;15.27;;;13.53;;
5171;SDS011;2605;49.770;9.868;2022-08-21T02:24:57;14.53;;;13.23;;
5171;SDS011;2605;49.770;9.868;2022-08-21T02:27:26;14.57;;;13.17;;
5171;SDS011;2605;49.770;9.868;2022-08-21T02:29:51;13.60;;;12.30;;
5171;SDS011;2605;49.770;9.868;2022-08-21T02:32:17;14.60;;;13.07;;
5171;SDS011;2605;49.770;9.868;2022-08-21T02:34:43;14.03;;;12.87;;
5171;SDS011;2605;49.770;9.868;2022-08-21T02:37:08;12.70;;;11.70;;
5171;SDS011;2605;49.770;9.868;2022-08-21T02:39:34;13.93;;;12.83;;
5171;SDS011;2605;49.770;9.868;2022-08-21T02:42:00;14.60;;;13.10;;
5171;SDS011;2605;49.770;9.868;2022-08-21T02:44:25;14.37;;;13.03;;
5171;SDS011;2605;49.770;9.868;2022-08-21T02:46:51;14.13;;;12.97;;
5171;SDS011;2605;49.770;9.868;2022-08-21T02:49:16;14.27;;;13.17;;
5171;SDS011;2605;49.770;9.868;2022-08-21T02:51:44;15.20;;;13.63;;
5171;SDS011;2605;49.770;9.868;2022-08-21T02:54:10;14.83;;;13.53;;
5171;SDS011;2605;49.770;9.868;2022-08-21T02:56:35;13.83;;;12.63;;
5171;SDS011;2605;49.770;9.868;2022-08-21T02:59:01;13.70;;;12.23;;
5171;SDS011;2605;49.770;9.868;2022-08-21T03:01:27;13.37;;;11.77;;
5171;SDS011;2605;49.770;9.868;2022-08-21T03:03:53;14.00;;;12.43;;
5171;SDS011;2605;49.770;9.868;2022-08-21T03:06:19;16.37;;;12.20;;
5171;SDS011;2605;49.770;9.868;2022-08-21T03:08:46;12.93;;;11.73;;
5171;SDS011;2605;49.770;9.868;2022-08-21T03:11:13;13.30;;;12.10;;
5171;SDS011;2605;49.770;9.868;2022-08-21T03:13:41;14.10;;;12.80;;
5171;SDS011;2605;49.770;9.868;2022-08-21T03:16:07;15.10;;;12.13;;
5171;SDS011;2605;49.770;9.868;2022-08-21T03:18:33;13.70;;;12.40;;
5171;SDS011;2605;49.770;9.868;2022-08-21T03:20:59;14.00;;;12.70;;
5171;SDS011;2605;49.770;9.868;2022-08-21T03:23:24;15.00;;;13.50;;
5171;SDS011;2605;49.770;9.868;2022-08-21T03:25:50;14.97;;;13.60;;
5171;SDS011;2605;49.770;9.868;2022-08-21T03:28:17;15.20;;;13.90;;
5171;SDS011;2605;49.770;9.868;2022-08-21T03:30:45;17.93;;;13.10;;
5171;SDS011;2605;49.770;9.868;2022-08-21T03:33:13;15.43;;;13.93;;
5171;SDS011;2605;49.770;9.868;2022-08-21T03:35:39;14.70;;;13.27;;
5171;SDS011;2605;49.770;9.868;2022-08-21T03:38:06;16.00;;;14.63;;
5171;SDS011;2605;49.770;9.868;2022-08-21T03:40:32;16.53;;;15.13;;
5171;SDS011;2605;49.770;9.868;2022-08-21T03:42:58;15.33;;;13.93;;
5171;SDS011;2605;49.770;9.868;2022-08-21T03:45:24;14.47;;;13.20;;
5171;SDS011;2605;49.770;9.868;2022-08-21T03:48:00;14.87;;;13.47;;
5171;SDS011;2605;49.770;9.868;2022-08-21T03:50:29;14.43;;;13.13;;
5171;SDS011;2605;49.770;9.868;2022-08-21T03:52:56;15.87;;;13.40;;
5171;SDS011;2605;49.770;9.868;2022-08-21T03:55:25;16.47;;;13.33;;
5171;SDS011;2605;49.770;9.868;2022-08-21T03:57:51;13.23;;;12.00;;
5171;SDS011;2605;49.770;9.868;2022-08-21T04:00:17;14.57;;;13.37;;
5171;SDS011;2605;49.770;9.868;2022-08-21T04:02:45;15.03;;;13.60;;
5171;SDS011;2605;49.770;9.868;2022-08-21T04:05:12;14.43;;;13.10;;
5171;SDS011;2605;49.770;9.868;2022-08-21T04:07:38;13.13;;;11.97;;
5171;SDS011;2605;49.770;9.868;2022-08-21T04:10:05;13.90;;;12.80;;
5171;SDS011;2605;49.770;9.868;2022-08-21T04:12:32;14.80;;;13.50;;
5171;SDS011;2605;49.770;9.868;2022-08-21T04:14:57;13.73;;;12.33;;
5171;SDS011;2605;49.770;9.868;2022-08-21T04:17:23;13.00;;;11.70;;
5171;SDS011;2605;49.770;9.868;2022-08-21T04:19:49;14.37;;;12.87;;
5171;SDS011;2605;49.770;9.868;2022-08-21T04:22:15;13.03;;;11.73;;
5171;SDS011;2605;49.770;9.868;2022-08-21T04:24:40;13.60;;;12.20;;
5171;SDS011;2605;49.770;9.868;2022-08-21T04:27:06;14.20;;;13.00;;
5171;SDS011;2605;49.770;9.868;2022-08-21T04:29:31;13.90;;;11.70;;
5171;SDS011;2605;49.770;9.868;2022-08-21T04:31:57;13.17;;;12.17;;
5171;SDS011;2605;49.770;9.868;2022-08-21T04:34:22;12.53;;;11.43;;
5171;SDS011;2605;49.770;9.868;2022-08-21T04:36:48;16.10;;;13.60;;
5171;SDS011;2605;49.770;9.868;2022-08-21T04:39:13;14.70;;;13.10;;
5171;SDS011;2605;49.770;9.868;2022-08-21T04:41:39;16.93;;;11.90;;
5171;SDS011;2605;49.770;9.868;2022-08-21T04:44:07;14.47;;;13.07;;
5171;SDS011;2605;49.770;9.868;2022-08-21T04:46:33;15.13;;;12.60;;
5171;SDS011;2605;49.770;9.868;2022-08-21T04:48:59;14.30;;;13.00;;
5171;SDS011;2605;49.770;9.868;2022-08-21T04:51:32;13.47;;;11.93;;
5171;SDS011;2605;49.770;9.868;2022-08-21T04:54:00;12.20;;;11.00;;
5171;SDS011;2605;49.770;9.868;2022-08-21T04:56:45;12.83;;;11.67;;
5171;SDS011;2605;49.770;9.868;2022-08-21T04:59:24;12.93;;;11.70;;
5171;SDS011;2605;49.770;9.868;2022-08-21T05:02:01;13.50;;;12.20;;
5171;SDS011;2605;49.770;9.868;2022-08-21T05:04:29;13.57;;;12.30;;
5171;SDS011;2605;49.770;9.868;2022-08-21T05:06:58;12.87;;;11.63;;
5171;SDS011;2605;49.770;9.868;2022-08-21T05:09:30;12.63;;;11.53;;
5171;SDS011;2605;49.770;9.868;2022-08-21T05:11:56;12.70;;;11.60;;
5171;SDS011;2605;49.770;9.868;2022-08-21T05:14:22;14.97;;;11.27;;
5171;SDS011;2605;49.770;9.868;2022-08-21T05:16:48;13.77;;;12.47;;
5171;SDS011;2605;49.770;9.868;2022-08-21T05:19:14;13.80;;;11.20;;
5171;SDS011;2605;49.770;9.868;2022-08-21T05:21:41;15.70;;;10.87;;
5171;SDS011;2605;49.770;9.868;2022-08-21T05:24:08;13.60;;;12.23;;
5171;SDS011;2605;49.770;9.868;2022-08-21T05:26:34;12.77;;;11.67;;
5171;SDS011;2605;49.770;9.868;2022-08-21T05:29:01;12.30;;;11.30;;
5171;SDS011;2605;49.770;9.868;2022-08-21T05:31:27;12.30;;;11.20;;
5171;SDS011;2605;49.770;9.868;2022-08-21T05:33:52;12.53;;;11.43;;
5171;SDS011;2605;49.770;9.868;2022-08-21T05:36:18;13.63;;;12.40;;
5171;SDS011;2605;49.770;9.868;2022-08-21T05:38:43;17.17;;;11.47;;
5171;SDS011;2605;49.770;9.868;2022-08-21T05:41:09;12.43;;;11.30;;
5171;SDS011;2605;49.770;9.868;2022-08-21T05:43:34;14.07;;;12.87;;
5171;SDS011;2605;49.770;9.868;2022-08-21T05:46:01;12.00;;;10.90;;
5171;SDS011;2605;49.770;9.868;2022-08-21T05:48:27;12.23;;;11.13;;
5171;SDS011;2605;49.770;9.868;2022-08-21T05:50:53;12.60;;;11.50;;
5171;SDS011;2605;49.770;9.868;2022-08-21T05:53:20;13.13;;;11.83;;
5171;SDS011;2605;49.770;9.868;2022-08-21T05:55:46;11.63;;;10.70;;
5171;SDS011;2605;49.770;9.868;2022-08-21T05:58:13;13.00;;;11.77;;
5171;SDS011;2605;49.770;9.868;2022-08-21T06:00:40;11.67;;;10.43;;
5171;SDS011;2605;49.770;9.868;2022-08-21T06:03:10;13.77;;;12.47;;
5171;SDS011;2605;49.770;9.868;2022-08-21T06:05:37;16.33;;;12.80;;
5171;SDS011;2605;49.770;9.868;2022-08-21T06:08:02;12.83;;;11.63;;
5171;SDS011;2605;49.770;9.868;2022-08-21T06:10:28;13.20;;;11.80;;
5171;SDS011;2605;49.770;9.868;2022-08-21T06:12:54;13.30;;;11.97;;
5171;SDS011;2605;49.770;9.868;2022-08-21T06:15:20;13.10;;;12.00;;
5171;SDS011;2605;49.770;9.868;2022-08-21T06:17:45;12.17;;;11.07;;
5171;SDS011;2605;49.770;9.868;2022-08-21T06:20:11;17.63;;;12.80;;
5171;SDS011;2605;49.770;9.868;2022-08-21T06:22:37;13.13;;;11.47;;
5171;SDS011;2605;49.770;9.868;2022-08-21T06:25:02;13.33;;;12.23;;
5171;SDS011;2605;49.770;9.868;2022-08-21T06:27:28;15.67;;;12.47;;
5171;SDS011;2605;49.770;9.868;2022-08-21T06:29:54;13.80;;;12.53;;
5171;SDS011;2605;49.770;9.868;2022-08-21T06:32:21;17.20;;;12.67;;
5171;SDS011;2605;49.770;9.868;2022-08-21T06:34:46;15.43;;;12.53;;
5171;SDS011;2605;49.770;9.868;2022-08-21T06:37:12;12.47;;;11.37;;
5171;SDS011;2605;49.770;9.868;2022-08-21T06:39:37;12.30;;;11.10;;
5171;SDS011;2605;49.770;9.868;2022-08-21T06:42:04;11.93;;;10.83;;
5171;SDS011;2605;49.770;9.868;2022-08-21T06:44:30;11.60;;;10.67;;
5171;SDS011;2605;49.770;9.868;2022-08-21T06:46:58;11.67;;;10.60;;
5171;SDS011;2605;49.770;9.868;2022-08-21T06:49:24;12.73;;;11.30;;
5171;SDS011;2605;49.770;9.868;2022-08-21T06:51:50;12.43;;;11.33;;
5171;SDS011;2605;49.770;9.868;2022-08-21T06:54:15;14.53;;;13.03;;
5171;SDS011;2605;49.770;9.868;2022-08-21T06:56:40;11.90;;;10.80;;
5171;SDS011;2605;49.770;9.868;2022-08-21T06:59:06;14.53;;;11.87;;
5171;SDS011;2605;49.770;9.868;2022-08-21T07:01:32;12.83;;;11.37;;
5171;SDS011;2605;49.770;9.868;2022-08-21T07:03:57;12.73;;;11.73;;
5171;SDS011;2605;49.770;9.868;2022-08-21T07:06:23;13.47;;;12.27;;
5171;SDS011;2605;49.770;9.868;2022-08-21T07:08:49;13.87;;;12.00;;
5171;SDS011;2605;49.770;9.868;2022-08-21T07:11:19;15.33;;;13.73;;
5171;SDS011;2605;49.770;9.868;2022-08-21T07:13:46;16.30;;;14.80;;
5171;SDS011;2605;49.770;9.868;2022-08-21T07:16:13;12.97;;;11.77;;
5171;SDS011;2605;49.770;9.868;2022-08-21T07:18:38;13.03;;;11.83;;
5171;SDS011;2605;49.770;9.868;2022-08-21T07:21:04;14.60;;;13.10;;
5171;SDS011;2605;49.770;9.868;2022-08-21T07:23:34;14.10;;;13.00;;
5171;SDS011;2605;49.770;9.868;2022-08-21T07:26:03;13.30;;;12.10;;
5171;SDS011;2605;49.770;9.868;2022-08-21T07:28:28;13.67;;;12.17;;
5171;SDS011;2605;49.770;9.868;2022-08-21T07:30:56;14.00;;;12.70;;
5171;SDS011;2605;49.770;9.868;2022-08-21T07:33:24;13.47;;;12.20;;
5171;SDS011;2605;49.770;9.868;2022-08-21T07:35:50;13.47;;;12.07;;
5171;SDS011;2605;49.770;9.868;2022-08-21T07:38:16;12.53;;;11.43;;
5171;SDS011;2605;49.770;9.868;2022-08-21T07:40:42;13.40;;;11.10;;
5171;SDS011;2605;49.770;9.868;2022-08-21T07:43:08;13.87;;;12.57;;
5171;SDS011;2605;49.770;9.868;2022-08-21T07:45:34;12.90;;;11.60;;
5171;SDS011;2605;49.770;9.868;2022-08-21T07:48:00;12.50;;;11.50;;
5171;SDS011;2605;49.770;9.868;2022-08-21T07:50:25;13.13;;;11.93;;
5171;SDS011;2605;49.770;9.868;2022-08-21T07:52:51;12.87;;;11.77;;
5171;SDS011;2605;49.770;9.868;2022-08-21T07:55:18;13.50;;;12.30;;
5171;SDS011;2605;49.770;9.868;2022-08-21T07:57:46;13.40;;;12.40;;
5171;SDS011;2605;49.770;9.868;2022-08-21T08:00:14;13.30;;;12.10;;
5171;SDS011;2605;49.770;9.868;2022-08-21T08:02:43;11.77;;;10.67;;
5171;SDS011;2605;49.770;9.868;2022-08-21T08:05:10;11.07;;;10.17;;
5171;SDS011;2605;49.770;9.868;2022-08-21T08:07:36;12.83;;;11.83;;
5171;SDS011;2605;49.770;9.868;2022-08-21T08:10:03;16.20;;;12.53;;
5171;SDS011;2605;49.770;9.868;2022-08-21T08:12:30;15.07;;;13.40;;
5171;SDS011;2605;49.770;9.868;2022-08-21T08:14:59;14.10;;;12.90;;
5171;SDS011;2605;49.770;9.868;2022-08-21T08:17:26;13.23;;;12.07;;
5171;SDS011;2605;49.770;9.868;2022-08-21T08:19:52;14.20;;;12.87;;
5171;SDS011;2605;49.770;9.868;2022-08-21T08:22:19;13.33;;;12.03;;
5171;SDS011;2605;49.770;9.868;2022-08-21T08:24:50;14.47;;;13.17;;
5171;SDS011;2605;49.770;9.868;2022-08-21T08:27:16;13.10;;;11.97;;
5171;SDS011;2605;49.770;9.868;2022-08-21T08:29:42;11.83;;;10.93;;
5171;SDS011;2605;49.770;9.868;2022-08-21T08:32:08;14.30;;;13.00;;
5171;SDS011;2605;49.770;9.868;2022-08-21T08:34:34;12.50;;;11.60;;
5171;SDS011;2605;49.770;9.868;2022-08-21T08:37:02;12.70;;;11.70;;
5171;SDS011;2605;49.770;9.868;2022-08-21T08:39:29;13.23;;;12.07;;
5171;SDS011;2605;49.770;9.868;2022-08-21T08:42:14;12.73;;;11.50;;
5171;SDS011;2605;49.770;9.868;2022-08-21T08:44:43;11.40;;;10.50;;
5171;SDS011;2605;49.770;9.868;2022-08-21T08:47:10;10.87;;;10.07;;
5171;SDS011;2605;49.770;9.868;2022-08-21T08:49:47;8.60;;;7.90;;
5171;SDS011;2605;49.770;9.868;2022-08-21T08:52:30;7.03;;;6.53;;
5171;SDS011;2605;49.770;9.868;2022-08-21T08:57:45;6.63;;;6.23;;
5171;SDS011;2605;49.770;9.868;2022-08-21T09:00:13;8.07;;;7.47;;
5171;SDS011;2605;49.770;9.868;2022-08-21T09:02:41;7.07;;;6.50;;
5171;SDS011;2605;49.770;9.868;2022-08-21T09:05:12;9.07;;;8.37;;
5171;SDS011;2605;49.770;9.868;2022-08-21T09:07:53;8.03;;;7.40;;
5171;SDS011;2605;49.770;9.868;2022-08-21T09:10:44;7.80;;;7.20;;
5171;SDS011;2605;49.770;9.868;2022-08-21T09:16:24;6.43;;;5.93;;
5171;SDS011;2605;49.770;9.868;2022-08-21T09:22:06;7.87;;;7.10;;
5171;SDS011;2605;49.770;9.868;2022-08-21T09:24:40;7.70;;;7.00;;
5171;SDS011;2605;49.770;9.868;2022-08-21T09:27:19;7.67;;;7.07;;
5171;SDS011;2605;49.770;9.868;2022-08-21T09:29:48;6.67;;;6.17;;
5171;SDS011;2605;49.770;9.868;2022-08-21T09:32:17;5.70;;;5.30;;
5171;SDS011;2605;49.770;9.868;2022-08-21T09:34:58;6.50;;;6.00;;
5171;SDS011;2605;49.770;9.868;2022-08-21T09:37:27;6.40;;;5.90;;
5171;SDS011;2605;49.770;9.868;2022-08-21T09:39:54;6.53;;;6.03;;
5171;SDS011;2605;49.770;9.868;2022-08-21T09:42:25;6.63;;;5.77;;
5171;SDS011;2605;49.770;9.868;2022-08-21T09:45:07;6.13;;;5.67;;
5171;SDS011;2605;49.770;9.868;2022-08-21T09:47:36;7.77;;;5.83;;
5171;SDS011;2605;49.770;9.868;2022-08-21T09:50:09;6.50;;;6.00;;
5171;SDS011;2605;49.770;9.868;2022-08-21T09:52:42;6.53;;;6.03;;
5171;SDS011;2605;49.770;9.868;2022-08-21T09:55:21;5.47;;;5.07;;
5171;SDS011;2605;49.770;9.868;2022-08-21T09:58:29;6.33;;;5.80;;
5171;SDS011;2605;49.770;9.868;2022-08-21T10:00:58;9.13;;;4.90;;
5171;SDS011;2605;49.770;9.868;2022-08-21T10:03:26;5.23;;;4.80;;
5171;SDS011;2605;49.770;9.868;2022-08-21T10:05:56;6.70;;;4.50;;
5171;SDS011;2605;49.770;9.868;2022-08-21T10:08:25;10.83;;;10.33;;
5171;SDS011;2605;49.770;9.868;2022-08-21T10:10:54;11.57;;;10.87;;
5171;SDS011;2605;49.770;9.868;2022-08-21T10:13:30;10.87;;;10.27;;
5171;SDS011;2605;49.770;9.868;2022-08-21T10:16:26;9.63;;;8.93;;
5171;SDS011;2605;49.770;9.868;2022-08-21T10:19:01;10.90;;;10.20;;
5171;SDS011;2605;49.770;9.868;2022-08-21T10:22:08;10.97;;;10.30;;
5171;SDS011;2605;49.770;9.868;2022-08-21T10:24:45;10.93;;;10.30;;
5171;SDS011;2605;49.770;9.868;2022-08-21T10:27:45;10.70;;;10.10;;
5171;SDS011;2605;49.770;9.868;2022-08-21T10:30:34;9.07;;;8.47;;
5171;SDS011;2605;49.770;9.868;2022-08-21T10:33:12;12.23;;;11.43;;
5171;SDS011;2605;49.770;9.868;2022-08-21T10:44:22;10.43;;;9.53;;
5171;SDS011;2605;49.770;9.868;2022-08-21T10:47:05;10.93;;;10.27;;
5171;SDS011;2605;49.770;9.868;2022-08-21T10:50:01;12.50;;;11.77;;
5171;SDS011;2605;49.770;9.868;2022-08-21T10:55:41;11.87;;;11.20;;
5171;SDS011;2605;49.770;9.868;2022-08-21T11:01:09;6.10;;;5.70;;
5171;SDS011;2605;49.770;9.868;2022-08-21T11:03:47;5.90;;;5.40;;
5171;SDS011;2605;49.770;9.868;2022-08-21T11:06:23;5.80;;;5.30;;
5171;SDS011;2605;49.770;9.868;2022-08-21T11:08:53;5.87;;;5.47;;
5171;SDS011;2605;49.770;9.868;2022-08-21T11:11:26;6.90;;;6.50;;
5171;SDS011;2605;49.770;9.868;2022-08-21T11:14:01;8.27;;;5.40;;
5171;SDS011;2605;49.770;9.868;2022-08-21T11:16:36;4.90;;;4.43;;
5171;SDS011;2605;49.770;9.868;2022-08-21T11:19:13;6.20;;;5.70;;
5171;SDS011;2605;49.770;9.868;2022-08-21T11:21:51;4.80;;;4.40;;
5171;SDS011;2605;49.770;9.868;2022-08-21T11:29:43;14.60;;;13.50;;
5171;SDS011;2605;49.770;9.868;2022-08-21T11:32:31;10.17;;;9.60;;
5171;SDS011;2605;49.770;9.868;2022-08-21T11:40:41;4.77;;;4.27;;
5171;SDS011;2605;49.770;9.868;2022-08-21T11:54:39;10.20;;;9.70;;
5171;SDS011;2605;49.770;9.868;2022-08-21T12:02:45;10.50;;;10.10;;
5171;SDS011;2605;49.770;9.868;2022-08-21T12:05:23;9.10;;;8.50;;
5171;SDS011;2605;49.770;9.868;2022-08-21T12:10:39;9.63;;;9.07;;
5171;SDS011;2605;49.770;9.868;2022-08-21T12:13:22;9.37;;;8.77;;
5171;SDS011;2605;49.770;9.868;2022-08-21T12:15:51;8.70;;;8.20;;
5171;SDS011;2605;49.770;9.868;2022-08-21T12:18:29;9.90;;;9.00;;
5171;SDS011;2605;49.770;9.868;2022-08-21T12:20:57;6.23;;;5.93;;
5171;SDS011;2605;49.770;9.868;2022-08-21T12:23:27;7.77;;;7.17;;
5171;SDS011;2605;49.770;9.868;2022-08-21T12:25:59;7.23;;;6.57;;
5171;SDS011;2605;49.770;9.868;2022-08-21T12:28:45;11.87;;;11.00;;
5171;SDS011;2605;49.770;9.868;2022-08-21T12:31:22;10.47;;;9.87;;
5171;SDS011;2605;49.770;9.868;2022-08-21T12:33:55;11.80;;;11.30;;
5171;SDS011;2605;49.770;9.868;2022-08-21T12:36:26;10.53;;;10.03;;
5171;SDS011;2605;49.770;9.868;2022-08-21T12:39:02;12.60;;;12.00;;
5171;SDS011;2605;49.770;9.868;2022-08-21T12:41:34;13.20;;;12.40;;
5171;SDS011;2605;49.770;9.868;2022-08-21T12:44:32;12.17;;;11.57;;
5171;SDS011;2605;49.770;9.868;2022-08-21T12:47:03;12.53;;;11.80;;
5171;SDS011;2605;49.770;9.868;2022-08-21T12:49:36;13.47;;;12.77;;
5171;SDS011;2605;49.770;9.868;2022-08-21T12:52:14;12.17;;;11.50;;
5171;SDS011;2605;49.770;9.868;2022-08-21T12:54:45;12.93;;;12.33;;
5171;SDS011;2605;49.770;9.868;2022-08-21T12:57:18;13.07;;;12.33;;
5171;SDS011;2605;49.770;9.868;2022-08-21T12:59:53;14.13;;;13.33;;
5171;SDS011;2605;49.770;9.868;2022-08-21T13:02:35;15.10;;;14.13;;
5171;SDS011;2605;49.770;9.868;2022-08-21T13:05:05;12.90;;;12.20;;
5171;SDS011;2605;49.770;9.868;2022-08-21T13:07:34;11.57;;;10.97;;
5171;SDS011;2605;49.770;9.868;2022-08-21T13:10:06;11.60;;;11.10;;
5171;SDS011;2605;49.770;9.868;2022-08-21T13:12:41;12.77;;;12.07;;
5171;SDS011;2605;49.770;9.868;2022-08-21T13:15:07;12.40;;;11.80;;
5171;SDS011;2605;49.770;9.868;2022-08-21T13:17:35;13.30;;;12.60;;
5171;SDS011;2605;49.770;9.868;2022-08-21T13:20:07;13.27;;;12.57;;
5171;SDS011;2605;49.770;9.868;2022-08-21T13:22:42;12.77;;;12.10;;
5171;SDS011;2605;49.770;9.868;2022-08-21T13:25:15;12.10;;;11.60;;
5171;SDS011;2605;49.770;9.868;2022-08-21T13:27:44;14.10;;;13.17;;
5171;SDS011;2605;49.770;9.868;2022-08-21T13:30:21;14.00;;;13.17;;
5171;SDS011;2605;49.770;9.868;2022-08-21T13:32:49;12.60;;;12.00;;
5171;SDS011;2605;49.770;9.868;2022-08-21T13:35:17;12.73;;;12.10;;
5171;SDS011;2605;49.770;9.868;2022-08-21T13:37:46;13.97;;;13.20;;
5171;SDS011;2605;49.770;9.868;2022-08-21T13:40:14;13.27;;;12.67;;
5171;SDS011;2605;49.770;9.868;2022-08-21T13:42:43;13.20;;;12.40;;
5171;SDS011;2605;49.770;9.868;2022-08-21T13:45:12;11.70;;;11.20;;
5171;SDS011;2605;49.770;9.868;2022-08-21T13:47:43;11.67;;;10.87;;
5171;SDS011;2605;49.770;9.868;2022-08-21T13:50:11;11.10;;;10.50;;
5171;SDS011;2605;49.770;9.868;2022-08-21T13:52:46;9.50;;;8.90;;
5171;SDS011;2605;49.770;9.868;2022-08-21T13:55:16;8.40;;;7.90;;
5171;SDS011;2605;49.770;9.868;2022-08-21T13:57:42;8.47;;;8.07;;
5171;SDS011;2605;49.770;9.868;2022-08-21T14:00:16;8.40;;;7.90;;
5171;SDS011;2605;49.770;9.868;2022-08-21T14:02:50;8.47;;;7.67;;
5171;SDS011;2605;49.770;9.868;2022-08-21T14:05:21;6.97;;;6.57;;
5171;SDS011;2605;49.770;9.868;2022-08-21T14:08:14;10.90;;;10.40;;
5171;SDS011;2605;49.770;9.868;2022-08-21T14:10:49;5.93;;;5.33;;
5171;SDS011;2605;49.770;9.868;2022-08-21T14:16:00;5.40;;;5.00;;
5171;SDS011;2605;49.770;9.868;2022-08-21T14:18:27;3.90;;;3.70;;
5171;SDS011;2605;49.770;9.868;2022-08-21T14:21:06;4.40;;;4.10;;
5171;SDS011;2605;49.770;9.868;2022-08-21T14:23:33;4.63;;;4.23;;
5171;SDS011;2605;49.770;9.868;2022-08-21T14:25:59;4.57;;;4.27;;
5171;SDS011;2605;49.770;9.868;2022-08-21T14:28:31;15.37;;;14.57;;
5171;SDS011;2605;49.770;9.868;2022-08-21T14:31:17;12.43;;;11.90;;
5171;SDS011;2605;49.770;9.868;2022-08-21T14:33:45;12.70;;;12.20;;
5171;SDS011;2605;49.770;9.868;2022-08-21T14:36:11;15.50;;;14.70;;
5171;SDS011;2605;49.770;9.868;2022-08-21T14:38:37;4.67;;;4.27;;
5171;SDS011;2605;49.770;9.868;2022-08-21T14:41:08;4.50;;;4.20;;
5171;SDS011;2605;49.770;9.868;2022-08-21T14:43:43;4.73;;;4.43;;
5171;SDS011;2605;49.770;9.868;2022-08-21T14:46:11;4.50;;;4.20;;
5171;SDS011;2605;49.770;9.868;2022-08-21T14:48:38;4.60;;;4.40;;
5171;SDS011;2605;49.770;9.868;2022-08-21T14:51:04;5.07;;;4.50;;
5171;SDS011;2605;49.770;9.868;2022-08-21T14:53:29;4.63;;;4.33;;
5171;SDS011;2605;49.770;9.868;2022-08-21T14:55:55;5.00;;;4.60;;
5171;SDS011;2605;49.770;9.868;2022-08-21T14:58:30;9.03;;;8.63;;
5171;SDS011;2605;49.770;9.868;2022-08-21T15:01:00;4.83;;;4.43;;
5171;SDS011;2605;49.770;9.868;2022-08-21T15:03:28;4.93;;;4.53;;
5171;SDS011;2605;49.770;9.868;2022-08-21T15:05:55;5.13;;;4.73;;
5171;SDS011;2605;49.770;9.868;2022-08-21T15:08:20;5.03;;;4.63;;
5171;SDS011;2605;49.770;9.868;2022-08-21T15:10:46;6.00;;;5.37;;
5171;SDS011;2605;49.770;9.868;2022-08-21T15:13:12;5.20;;;4.80;;
5171;SDS011;2605;49.770;9.868;2022-08-21T15:15:39;5.47;;;5.17;;
5171;SDS011;2605;49.770;9.868;2022-08-21T15:18:07;4.60;;;4.40;;
5171;SDS011;2605;49.770;9.868;2022-08-21T15:20:34;5.17;;;4.87;;
5171;SDS011;2605;49.770;9.868;2022-08-21T15:23:03;5.00;;;4.70;;
5171;SDS011;2605;49.770;9.868;2022-08-21T15:25:30;5.93;;;5.50;;
5171;SDS011;2605;49.770;9.868;2022-08-21T15:27:56;5.30;;;4.90;;
5171;SDS011;2605;49.770;9.868;2022-08-21T15:30:23;6.13;;;5.75;;
5171;SDS011;2605;49.770;9.868;2022-08-21T15:32:48;5.10;;;4.90;;
5171;SDS011;2605;49.770;9.868;2022-08-21T15:35:14;5.75;;;5.35;;
5171;SDS011;2605;49.770;9.868;2022-08-21T15:37:39;4.95;;;4.65;;
5171;SDS011;2605;49.770;9.868;2022-08-21T15:40:05;5.50;;;5.20;;
5171;SDS011;2605;49.770;9.868;2022-08-21T15:42:33;6.22;;;5.82;;
5171;SDS011;2605;49.770;9.868;2022-08-21T15:44:59;6.35;;;5.93;;
5171;SDS011;2605;49.770;9.868;2022-08-21T15:47:27;5.03;;;4.82;;
5171;SDS011;2605;49.770;9.868;2022-08-21T15:49:55;5.45;;;5.18;;
5171;SDS011;2605;49.770;9.868;2022-08-21T15:52:21;5.90;;;5.33;;
5171;SDS011;2605;49.770;9.868;2022-08-21T15:54:47;5.57;;;5.27;;
5171;SDS011;2605;49.770;9.868;2022-08-21T15:57:13;5.47;;;5.17;;
5171;SDS011;2605;49.770;9.868;2022-08-21T15:59:42;5.63;;;5.23;;
5171;SDS011;2605;49.770;9.868;2022-08-21T16:02:15;6.20;;;5.80;;
5171;SDS011;2605;49.770;9.868;2022-08-21T16:04:48;5.13;;;4.80;;
5171;SDS011;2605;49.770;9.868;2022-08-21T16:07:13;5.23;;;4.83;;
5171;SDS011;2605;49.770;9.868;2022-08-21T16:09:39;4.70;;;4.50;;